createdAt,value
2022-09-01T00:00:41.513Z,99.99
2022-09-01T00:01:41.522Z,99.99
2022-09-01T00:02:41.529Z,99.99
2022-09-01T00:03:41.501Z,99.99
2022-09-01T00:04:41.543Z,99.99
2022-09-01T00:05:41.544Z,99.99
2022-09-01T00:06:41.511Z,99.99
2022-09-01T00:07:41.440Z,99.99
2022-09-01T00:08:41.429Z,99.99
2022-09-01T00:09:41.423Z,99.99
2022-09-01T00:10:41.434Z,99.99
2022-09-01T00:11:41.413Z,99.99
2022-09-01T00:12:41.433Z,99.99
2022-09-01T00:13:41.370Z,99.99
2022-09-01T00:14:41.739Z,99.99
2022-09-01T00:15:41.438Z,99.99
2022-09-01T00:16:41.351Z,99.99
2022-09-01T00:17:41.328Z,99.99
2022-09-01T00:18:41.329Z,99.99
2022-09-01T00:19:41.339Z,99.99
2022-09-01T00:20:41.305Z,99.99
2022-09-01T00:21:41.293Z,99.99
2022-09-01T00:22:41.287Z,99.99
2022-09-01T00:23:41.267Z,99.99
2022-09-01T00:24:41.269Z,99.99
2022-09-01T00:25:41.251Z,99.99
2022-09-01T00:26:41.235Z,99.99
2022-09-01T00:27:41.222Z,99.99
2022-09-01T00:28:41.223Z,99.99
2022-09-01T00:29:43.303Z,99.99
2022-09-01T00:30:41.254Z,99.99
2022-09-01T00:31:41.277Z,99.99
2022-09-01T00:32:41.170Z,99.99
2022-09-01T00:33:41.171Z,99.99
2022-09-01T00:34:41.156Z,99.99
2022-09-01T00:35:41.139Z,99.99
2022-09-01T00:36:41.168Z,99.99
2022-09-01T00:37:41.140Z,99.99
2022-09-01T00:38:41.106Z,99.99
2022-09-01T00:39:41.097Z,99.99
2022-09-01T00:40:41.158Z,99.99
2022-09-01T00:41:41.098Z,99.99
2022-09-01T00:42:41.090Z,99.99
2022-09-01T00:43:41.081Z,99.99
2022-09-01T00:44:41.047Z,99.99
2022-09-01T00:45:41.114Z,99.99
2022-09-01T00:46:47.751Z,99.99
2022-09-01T00:47:42.034Z,99.99
2022-09-01T00:48:41.000Z,99.99
2022-09-01T00:49:40.983Z,99.99
2022-09-01T00:50:40.977Z,99.99
2022-09-01T00:51:40.966Z,99.99
2022-09-01T00:52:40.970Z,99.99
2022-09-01T00:53:41.052Z,99.99
2022-09-01T00:54:40.933Z,99.99
2022-09-01T00:55:40.921Z,99.99
2022-09-01T00:56:40.920Z,99.99
2022-09-01T00:57:41.907Z,99.99
2022-09-01T00:58:40.895Z,99.99
2022-09-01T00:59:40.983Z,99.99
2022-09-01T01:00:40.887Z,99.99
2022-09-01T01:01:40.908Z,99.99
2022-09-01T01:02:40.905Z,99.99
2022-09-01T01:03:40.837Z,99.99
2022-09-01T01:04:40.835Z,99.99
2022-09-01T01:05:40.823Z,99.99
2022-09-01T01:06:40.809Z,99.99
2022-09-01T01:07:40.787Z,99.99
2022-09-01T01:08:40.781Z,99.99
2022-09-01T01:09:40.780Z,99.99
2022-09-01T01:10:40.762Z,99.99
2022-09-01T01:11:40.748Z,99.99
2022-09-01T01:12:40.771Z,99.99
2022-09-01T01:13:40.730Z,99.99
2022-09-01T01:14:40.720Z,99.99
2022-09-01T01:15:40.761Z,99.99
2022-09-01T01:16:40.753Z,99.99
2022-09-01T01:17:40.678Z,99.99
2022-09-01T01:18:40.698Z,99.99
2022-09-01T01:19:40.683Z,99.99
2022-09-01T01:20:40.660Z,99.99
2022-09-01T01:21:40.637Z,99.99
2022-09-01T01:22:40.637Z,99.99
2022-09-01T01:23:40.622Z,99.99
2022-09-01T01:24:40.615Z,99.99
2022-09-01T01:25:40.599Z,99.99
2022-09-01T01:26:40.602Z,99.99
2022-09-01T01:27:43.188Z,99.99
2022-09-01T01:28:40.575Z,99.99
2022-09-01T01:29:40.594Z,99.99
2022-09-01T01:30:40.607Z,99.99
2022-09-01T01:31:40.534Z,99.99
2022-09-01T01:32:40.539Z,99.99
2022-09-01T01:33:40.510Z,99.99
2022-09-01T01:34:40.498Z,99.99
2022-09-01T01:35:40.499Z,99.99
2022-09-01T01:36:40.491Z,99.99
2022-09-01T01:37:40.640Z,99.99
2022-09-01T01:38:40.482Z,99.99
2022-09-01T01:39:40.452Z,99.99
2022-09-01T01:40:40.545Z,99.99
2022-09-01T01:41:40.439Z,99.99
2022-09-01T01:42:40.461Z,99.99
2022-09-01T01:43:40.466Z,99.99
2022-09-01T01:44:40.413Z,99.99
2022-09-01T01:45:40.460Z,99.99
2022-09-01T01:46:40.368Z,99.99
2022-09-01T01:47:40.356Z,99.99
2022-09-01T01:48:40.392Z,99.99
2022-09-01T01:49:40.355Z,99.99
2022-09-01T01:50:40.323Z,99.99
2022-09-01T01:51:40.315Z,99.99
2022-09-01T01:52:40.316Z,99.99
2022-09-01T01:53:41.304Z,99.99
2022-09-01T01:54:40.309Z,99.99
2022-09-01T01:55:40.267Z,99.99
2022-09-01T01:56:40.294Z,99.99
2022-09-01T01:57:40.258Z,99.99
2022-09-01T01:58:40.245Z,99.99
2022-09-01T01:59:40.378Z,99.99
2022-09-01T02:00:40.221Z,99.99
2022-09-01T02:01:40.275Z,99.99
2022-09-01T02:02:40.315Z,99.99
2022-09-01T02:03:40.200Z,99.99
2022-09-01T02:04:40.204Z,99.99
2022-09-01T02:05:40.183Z,99.99
2022-09-01T02:06:40.155Z,99.99
2022-09-01T02:07:40.155Z,99.99
2022-09-01T02:08:40.133Z,99.99
2022-09-01T02:09:40.124Z,99.99
2022-09-01T02:10:40.141Z,99.99
2022-09-01T02:11:40.129Z,99.99
2022-09-01T02:12:40.094Z,99.99
2022-09-01T02:13:40.118Z,99.99
2022-09-01T02:14:40.081Z,99.99
2022-09-01T02:15:40.052Z,99.99
2022-09-01T02:16:40.105Z,99.99
2022-09-01T02:17:40.042Z,99.99
2022-09-01T02:19:59.040Z,99.99
2022-09-01T02:21:06.487Z,99.99
2022-09-01T02:21:58.917Z,99.99
2022-09-01T02:22:58.911Z,99.99
2022-09-01T02:23:59.029Z,99.99
2022-09-01T02:24:58.905Z,99.99
2022-09-01T02:26:15.717Z,99.99
2022-09-01T02:26:59.893Z,99.99
2022-09-01T02:27:58.864Z,99.99
2022-09-01T02:28:58.871Z,99.99
2022-09-01T02:29:58.834Z,99.99
2022-09-01T02:30:58.901Z,99.99
2022-09-01T02:31:58.887Z,99.99
2022-09-01T02:32:58.805Z,99.99
2022-09-01T02:33:58.800Z,99.99
2022-09-01T02:34:58.784Z,99.99
2022-09-01T02:35:58.820Z,99.99
2022-09-01T02:36:58.785Z,99.99
2022-09-01T02:37:58.772Z,99.99
2022-09-01T02:38:58.737Z,99.99
2022-09-01T02:39:58.736Z,99.99
2022-09-01T02:40:58.728Z,99.99
2022-09-01T02:41:58.748Z,99.99
2022-09-01T02:42:58.728Z,99.99
2022-09-01T02:43:58.692Z,99.99
2022-09-01T02:44:58.693Z,99.99
2022-09-01T02:45:58.745Z,99.99
2022-09-01T02:46:58.667Z,99.99
2022-09-01T02:47:58.654Z,99.99
2022-09-01T02:48:58.627Z,99.99
2022-09-01T02:49:58.625Z,99.99
2022-09-01T02:50:58.625Z,99.99
2022-09-01T02:51:58.593Z,99.99
2022-09-01T02:53:03.238Z,99.99
2022-09-01T02:53:59.576Z,99.99
2022-09-01T02:54:58.587Z,99.99
2022-09-01T02:55:58.558Z,99.99
2022-09-01T02:56:58.572Z,99.99
2022-09-01T02:57:58.541Z,99.99
2022-09-01T02:58:58.566Z,99.99
2022-09-01T02:59:58.514Z,99.99
2022-09-01T03:00:58.543Z,99.99
2022-09-01T03:01:58.490Z,99.99
2022-09-01T03:02:58.495Z,99.99
2022-09-01T03:03:58.596Z,99.99
2022-09-01T03:04:58.506Z,99.99
2022-09-01T03:05:58.483Z,99.99
2022-09-01T03:06:58.453Z,99.99
2022-09-01T03:07:58.435Z,99.99
2022-09-01T03:08:58.432Z,99.99
2022-09-01T03:09:58.423Z,99.99
2022-09-01T03:10:58.394Z,99.99
2022-09-01T03:11:58.387Z,99.99
2022-09-01T03:12:58.382Z,99.99
2022-09-01T03:13:58.392Z,99.99
2022-09-01T03:14:58.367Z,99.99
2022-09-01T03:15:58.346Z,99.99
2022-09-01T03:16:58.386Z,99.99
2022-09-01T03:17:58.397Z,99.99
2022-09-01T03:18:58.309Z,99.99
2022-09-01T03:19:58.293Z,99.99
2022-09-01T03:20:58.344Z,99.99
2022-09-01T03:21:58.295Z,99.99
2022-09-01T03:22:58.286Z,99.99
2022-09-01T03:23:58.328Z,99.99
2022-09-01T03:24:58.246Z,99.99
2022-09-01T03:25:58.412Z,99.99
2022-09-01T03:26:58.248Z,99.99
2022-09-01T03:27:58.208Z,99.99
2022-09-01T03:28:58.198Z,99.99
2022-09-01T03:29:58.187Z,99.99
2022-09-01T03:30:58.175Z,99.99
2022-09-01T03:31:58.297Z,99.99
2022-09-01T03:32:58.269Z,99.99
2022-09-01T03:33:58.142Z,99.99
2022-09-01T03:34:58.139Z,99.99
2022-09-01T03:35:58.122Z,99.99
2022-09-01T03:36:58.108Z,99.99
2022-09-01T03:37:58.123Z,99.99
2022-09-01T03:38:58.121Z,99.99
2022-09-01T03:39:58.159Z,99.99
2022-09-01T03:40:58.098Z,99.99
2022-09-01T03:41:58.060Z,99.99
2022-09-01T03:42:58.063Z,99.99
2022-09-01T03:43:58.082Z,99.99
2022-09-01T03:44:58.042Z,99.99
2022-09-01T03:45:58.099Z,99.99
2022-09-01T03:46:58.000Z,99.99
2022-09-01T03:47:57.992Z,99.99
2022-09-01T03:48:57.982Z,99.99
2022-09-01T03:49:57.978Z,99.99
2022-09-01T03:50:57.997Z,99.99
2022-09-01T03:51:57.963Z,99.99
2022-09-01T03:52:57.940Z,99.99
2022-09-01T03:53:59.118Z,99.99
2022-09-01T03:54:57.968Z,99.99
2022-09-01T03:55:57.951Z,99.99
2022-09-01T03:56:57.893Z,99.99
2022-09-01T03:57:57.891Z,99.99
2022-09-01T03:58:57.888Z,99.99
2022-09-01T03:59:57.871Z,99.99
2022-09-01T04:00:58.060Z,99.99
2022-09-01T04:01:57.971Z,99.99
2022-09-01T04:02:57.849Z,99.99
2022-09-01T04:03:57.825Z,99.99
2022-09-01T04:04:57.813Z,99.99
2022-09-01T04:05:57.818Z,99.99
2022-09-01T04:06:57.802Z,99.99
2022-09-01T04:07:57.805Z,99.99
2022-09-01T04:08:57.871Z,99.99
2022-09-01T04:09:57.768Z,99.99
2022-09-01T04:10:57.749Z,99.99
2022-09-01T04:11:57.794Z,99.99
2022-09-01T04:12:57.723Z,99.99
2022-09-01T04:13:57.740Z,99.99
2022-09-01T04:14:57.818Z,99.99
2022-09-01T04:15:57.697Z,99.99
2022-09-01T04:16:57.721Z,99.99
2022-09-01T04:17:57.677Z,99.99
2022-09-01T04:18:57.669Z,99.99
2022-09-01T04:19:57.673Z,99.99
2022-09-01T04:20:57.714Z,99.99
2022-09-01T04:21:57.681Z,99.99
2022-09-01T04:22:57.620Z,99.99
2022-09-01T04:23:57.609Z,99.99
2022-09-01T04:24:57.620Z,99.99
2022-09-01T04:25:57.608Z,99.99
2022-09-01T04:26:57.571Z,99.99
2022-09-01T04:27:57.590Z,99.99
2022-09-01T04:28:57.549Z,99.99
2022-09-01T04:29:57.979Z,99.99
2022-09-01T04:30:57.545Z,99.99
2022-09-01T04:31:57.612Z,99.99
2022-09-01T04:32:57.682Z,99.99
2022-09-01T04:33:57.517Z,99.99
2022-09-01T04:34:57.540Z,99.99
2022-09-01T04:35:57.475Z,99.99
2022-09-01T04:36:57.467Z,99.99
2022-09-01T04:37:57.469Z,99.99
2022-09-01T04:38:57.447Z,99.99
2022-09-01T04:39:57.740Z,99.99
2022-09-01T04:40:57.463Z,99.99
2022-09-01T04:41:57.419Z,99.99
2022-09-01T04:42:57.408Z,99.99
2022-09-01T04:43:57.420Z,99.99
2022-09-01T04:44:57.891Z,99.99
2022-09-01T04:45:57.451Z,99.99
2022-09-01T04:46:57.391Z,99.99
2022-09-01T04:47:57.345Z,99.99
2022-09-01T04:48:57.352Z,99.99
2022-09-01T04:49:57.345Z,99.99
2022-09-01T04:50:57.317Z,99.99
2022-09-01T04:51:57.309Z,99.99
2022-09-01T04:52:57.312Z,99.99
2022-09-01T04:53:57.375Z,99.99
2022-09-01T04:54:57.270Z,99.99
2022-09-01T04:55:57.285Z,99.99
2022-09-01T04:56:57.249Z,99.99
2022-09-01T04:57:57.239Z,99.99
2022-09-01T04:58:57.239Z,99.99
2022-09-01T04:59:57.224Z,99.99
2022-09-01T05:00:57.281Z,99.99
2022-09-01T05:01:57.242Z,99.99
2022-09-01T05:02:57.182Z,99.99
2022-09-01T05:03:57.173Z,99.99
2022-09-01T05:04:57.160Z,99.99
2022-09-01T05:05:57.161Z,99.99
2022-09-01T05:06:57.261Z,99.99
2022-09-01T05:07:57.138Z,99.99
2022-09-01T05:08:57.126Z,99.99
2022-09-01T05:10:01.062Z,99.99
2022-09-01T05:10:57.242Z,99.99
2022-09-01T05:11:57.093Z,99.99
2022-09-01T05:12:57.097Z,99.99
2022-09-01T05:13:57.068Z,99.99
2022-09-01T05:14:57.067Z,99.99
2022-09-01T05:15:57.082Z,99.99
2022-09-01T05:16:57.034Z,99.99
2022-09-01T05:17:57.028Z,99.99
2022-09-01T05:18:57.238Z,99.99
2022-09-01T05:19:57.055Z,99.99
2022-09-01T05:20:57.059Z,99.99
2022-09-01T05:21:56.996Z,99.99
2022-09-01T05:22:56.967Z,99.99
2022-09-01T05:23:56.959Z,99.99
2022-09-01T05:24:56.957Z,99.99
2022-09-01T05:25:56.975Z,99.99
2022-09-01T05:26:57.008Z,99.99
2022-09-01T05:27:57.004Z,99.99
2022-09-01T05:28:56.983Z,99.99
2022-09-01T05:29:57.115Z,99.99
2022-09-01T05:30:57.890Z,99.99
2022-09-01T05:31:56.924Z,99.99
2022-09-01T05:32:56.978Z,99.99
2022-09-01T05:33:56.879Z,99.99
2022-09-01T05:34:56.886Z,99.99
2022-09-01T05:35:56.832Z,99.99
2022-09-01T05:36:56.875Z,99.99
2022-09-01T05:37:56.929Z,99.99
2022-09-01T05:38:56.909Z,99.99
2022-09-01T05:39:56.915Z,99.99
2022-09-01T05:40:56.798Z,99.99
2022-09-01T05:41:56.868Z,99.99
2022-09-01T05:42:56.817Z,99.99
2022-09-01T05:44:00.511Z,99.99
2022-09-01T05:44:56.779Z,99.99
2022-09-01T05:46:06.641Z,99.99
2022-09-01T05:46:57.829Z,99.99
2022-09-01T05:47:56.771Z,99.99
2022-09-01T05:48:56.746Z,99.99
2022-09-01T05:49:56.710Z,99.99
2022-09-01T05:50:56.671Z,99.99
2022-09-01T05:51:56.671Z,99.99
2022-09-01T05:52:56.646Z,99.99
2022-09-01T05:53:56.645Z,99.99
2022-09-01T05:54:56.630Z,99.99
2022-09-01T05:55:56.736Z,99.99
2022-09-01T05:56:56.645Z,99.99
2022-09-01T05:57:56.617Z,99.99
2022-09-01T05:59:57.589Z,99.99
2022-09-01T06:00:56.588Z,99.99
2022-09-01T06:01:56.810Z,99.99
2022-09-01T06:02:56.689Z,99.99
2022-09-01T06:03:56.542Z,99.99
2022-09-01T06:04:56.513Z,99.99
2022-09-01T06:05:56.537Z,99.99
2022-09-01T06:07:13.638Z,99.99
2022-09-01T06:07:57.629Z,99.99
2022-09-01T06:08:56.491Z,99.99
2022-09-01T06:09:56.578Z,99.99
2022-09-01T06:10:56.454Z,99.99
2022-09-01T06:11:56.449Z,99.99
2022-09-01T06:12:56.430Z,99.99
2022-09-01T06:13:56.551Z,99.99
2022-09-01T06:14:56.432Z,99.99
2022-09-01T06:15:56.448Z,99.99
2022-09-01T06:16:56.428Z,99.99
2022-09-01T06:17:56.413Z,99.99
2022-09-01T06:18:56.371Z,99.99
2022-09-01T06:19:56.453Z,99.99
2022-09-01T06:20:56.376Z,99.99
2022-09-01T06:21:56.341Z,99.99
2022-09-01T06:22:56.332Z,99.99
2022-09-01T06:23:56.319Z,99.99
2022-09-01T06:25:01.020Z,99.99
2022-09-01T06:25:57.286Z,99.99
2022-09-01T06:26:56.306Z,99.99
2022-09-01T06:27:56.288Z,99.99
2022-09-01T06:28:56.294Z,99.99
2022-09-01T06:29:56.328Z,99.99
2022-09-01T06:30:56.458Z,99.99
2022-09-01T06:31:57.224Z,99.99
2022-09-01T06:32:56.226Z,99.99
2022-09-01T06:33:56.348Z,99.99
2022-09-01T06:34:56.197Z,99.99
2022-09-01T06:35:56.206Z,99.99
2022-09-01T06:36:56.257Z,99.99
2022-09-01T06:37:56.168Z,99.99
2022-09-01T06:38:56.327Z,99.99
2022-09-01T06:39:56.376Z,99.99
2022-09-01T06:40:56.166Z,99.99
2022-09-01T06:41:56.114Z,99.99
2022-09-01T06:42:56.115Z,99.99
2022-09-01T06:43:56.083Z,99.99
2022-09-01T06:44:56.087Z,99.99
2022-09-01T06:45:56.112Z,99.99
2022-09-01T06:46:56.137Z,99.99
2022-09-01T06:47:59.312Z,99.99
2022-09-01T06:48:56.031Z,99.99
2022-09-01T06:49:58.047Z,99.99
2022-09-01T06:51:57.019Z,99.99
2022-09-01T06:53:57.273Z,99.99
2022-09-01T06:54:55.957Z,99.99
2022-09-01T06:55:55.955Z,99.99
2022-09-01T06:56:55.938Z,99.99
2022-09-01T06:58:03.954Z,99.99
2022-09-01T06:58:56.919Z,99.99
2022-09-01T06:59:55.947Z,99.99
2022-09-01T07:00:55.893Z,99.99
2022-09-01T07:02:01.369Z,99.99
2022-09-01T07:02:57.129Z,99.99
2022-09-01T07:03:55.868Z,99.99
2022-09-01T07:04:56.009Z,99.99
2022-09-01T07:07:01.253Z,99.99
2022-09-01T07:08:12.108Z,99.99
2022-09-01T07:13:12.169Z,99.99
2022-09-01T07:17:23.309Z,99.99
2022-09-01T07:17:56.778Z,99.99
2022-09-01T07:18:59.014Z,99.99
2022-09-01T07:19:55.824Z,99.99
2022-09-01T07:21:07.039Z,99.99
2022-09-01T07:22:35.619Z,99.99
2022-09-01T07:23:04.725Z,99.99
2022-09-01T07:24:12.108Z,99.99
2022-09-01T07:25:11.939Z,99.99
2022-09-01T07:26:04.375Z,99.99
2022-09-01T07:26:56.620Z,99.99
2022-09-01T07:27:55.613Z,99.99
2022-09-01T07:29:04.273Z,99.99
2022-09-01T07:29:56.582Z,99.99
2022-09-01T07:30:55.570Z,99.99
2022-09-01T07:32:56.549Z,99.99
2022-09-01T07:34:37.693Z,99.99
2022-09-01T07:34:56.662Z,99.99
2022-09-01T07:38:47.293Z,99.99
2022-09-01T07:39:56.712Z,99.99
2022-09-01T07:42:31.115Z,99.99
2022-09-01T07:43:00.046Z,99.99
2022-09-01T07:43:11.821Z,99.99
2022-09-01T07:43:56.432Z,99.99
2022-09-01T07:44:55.448Z,99.99
2022-09-01T07:45:59.117Z,99.99
2022-09-01T07:47:56.512Z,99.99
2022-09-01T07:49:28.889Z,99.99
2022-09-01T07:50:25.015Z,99.99
2022-09-01T07:51:56.477Z,99.99
2022-09-01T07:52:55.344Z,99.99
2022-09-01T07:53:55.376Z,99.99
2022-09-01T07:54:55.324Z,99.48
2022-09-01T07:55:55.328Z,97.44
2022-09-01T07:56:55.330Z,97.96
2022-09-01T07:57:55.306Z,99.83
2022-09-01T07:58:55.336Z,98.97
2022-09-01T07:59:55.273Z,99.27
2022-09-01T08:00:55.254Z,95.72
2022-09-01T08:01:55.308Z,94.70
2022-09-01T08:02:57.200Z,94.40
2022-09-01T08:03:55.218Z,95.45
2022-09-01T08:04:55.234Z,99.72
2022-09-01T08:05:55.193Z,99.99
2022-09-01T08:06:55.185Z,99.82
2022-09-01T08:07:55.180Z,99.77
2022-09-01T08:08:57.008Z,99.99
2022-09-01T08:09:56.083Z,99.16
2022-09-01T08:11:03.989Z,99.21
2022-09-01T08:12:02.037Z,99.82
2022-09-01T08:12:56.622Z,99.02
2022-09-01T08:13:55.107Z,98.30
2022-09-01T08:16:56.244Z,96.63
2022-09-01T08:17:55.118Z,95.15
2022-09-01T08:18:55.098Z,96.97
2022-09-01T08:19:55.358Z,98.09
2022-09-01T08:20:55.145Z,98.25
2022-09-01T08:21:55.048Z,96.37
2022-09-01T08:22:55.051Z,95.32
2022-09-01T08:23:55.034Z,94.07
2022-09-01T08:24:54.992Z,92.80
2022-09-01T08:25:55.009Z,91.97
2022-09-01T08:26:54.967Z,94.61
2022-09-01T08:28:01.909Z,93.00
2022-09-01T08:28:55.982Z,93.21
2022-09-01T08:29:54.943Z,92.68
2022-09-01T08:30:54.942Z,90.75
2022-09-01T08:31:54.949Z,90.67
2022-09-01T08:32:54.956Z,90.99
2022-09-01T08:33:54.929Z,89.61
2022-09-01T08:34:54.884Z,90.77
2022-09-01T08:35:54.893Z,90.79
2022-09-01T08:36:54.855Z,89.57
2022-09-01T08:37:54.949Z,88.35
2022-09-01T08:38:54.846Z,89.06
2022-09-01T08:39:55.292Z,90.14
2022-09-01T08:40:56.585Z,88.42
2022-09-01T08:41:54.874Z,86.94
2022-09-01T08:42:54.814Z,89.28
2022-09-01T08:43:54.791Z,84.65
2022-09-01T08:44:54.769Z,81.99
2022-09-01T08:45:54.859Z,82.81
2022-09-01T08:46:54.799Z,82.60
2022-09-01T08:48:22.552Z,84.22
2022-09-01T08:49:55.745Z,86.31
2022-09-01T08:50:55.099Z,83.72
2022-09-01T08:51:54.702Z,83.58
2022-09-01T08:52:54.725Z,83.51
2022-09-01T08:53:54.748Z,83.47
2022-09-01T08:54:54.679Z,85.60
2022-09-01T08:55:54.693Z,84.85
2022-09-01T08:56:54.667Z,83.54
2022-09-01T08:57:59.012Z,84.85
2022-09-01T08:58:56.118Z,85.02
2022-09-01T08:59:54.612Z,83.80
2022-09-01T09:00:55.088Z,84.93
2022-09-01T09:01:54.841Z,80.76
2022-09-01T09:02:54.637Z,82.73
2022-09-01T09:03:54.581Z,79.94
2022-09-01T09:04:54.569Z,82.73
2022-09-01T09:05:54.554Z,78.36
2022-09-01T09:06:54.536Z,79.33
2022-09-01T09:08:06.506Z,81.16
2022-09-01T09:08:55.510Z,79.79
2022-09-01T09:09:54.518Z,82.18
2022-09-01T09:10:54.512Z,84.15
2022-09-01T09:11:54.490Z,81.61
2022-09-01T09:12:54.474Z,79.32
2022-09-01T09:13:54.465Z,75.70
2022-09-01T09:14:54.488Z,79.16
2022-09-01T09:16:07.387Z,77.69
2022-09-01T09:16:55.432Z,81.50
2022-09-01T09:17:59.612Z,80.59
2022-09-01T09:18:56.225Z,83.14
2022-09-01T09:19:54.404Z,78.43
2022-09-01T09:20:54.409Z,79.86
2022-09-01T09:21:54.407Z,81.88
2022-09-01T09:22:54.364Z,79.75
2022-09-01T09:23:55.886Z,81.01
2022-09-01T09:24:54.345Z,80.80
2022-09-01T09:25:54.335Z,81.76
2022-09-01T09:26:54.437Z,81.21
2022-09-01T09:28:01.525Z,81.39
2022-09-01T09:28:55.296Z,83.01
2022-09-01T09:29:54.278Z,82.70
2022-09-01T09:30:54.345Z,85.13
2022-09-01T09:31:54.263Z,81.15
2022-09-01T09:33:44.302Z,80.74
2022-09-01T09:33:55.587Z,81.49
2022-09-01T09:34:54.226Z,81.69
2022-09-01T09:35:54.214Z,81.05
2022-09-01T09:36:57.031Z,82.04
2022-09-01T09:37:54.197Z,79.92
2022-09-01T09:38:54.197Z,80.59
2022-09-01T09:39:54.188Z,81.46
2022-09-01T09:41:14.359Z,81.08
2022-09-01T09:41:55.202Z,78.56
2022-09-01T09:42:54.140Z,79.90
2022-09-01T09:43:54.163Z,77.98
2022-09-01T09:44:54.122Z,76.80
2022-09-01T09:45:54.166Z,74.08
2022-09-01T09:46:54.134Z,75.70
2022-09-01T09:47:54.099Z,73.52
2022-09-01T09:48:54.094Z,76.56
2022-09-01T09:49:54.066Z,75.49
2022-09-01T09:50:54.067Z,71.87
2022-09-01T09:51:54.084Z,76.80
2022-09-01T09:52:54.030Z,74.29
2022-09-01T09:53:54.355Z,74.18
2022-09-01T09:54:54.018Z,73.25
2022-09-01T09:55:56.212Z,73.58
2022-09-01T09:56:53.982Z,73.05
2022-09-01T09:57:53.981Z,75.83
2022-09-01T09:58:53.973Z,73.25
2022-09-01T10:00:00.398Z,72.20
2022-09-01T10:00:55.001Z,71.94
2022-09-01T10:01:53.926Z,69.29
2022-09-01T10:02:54.002Z,69.85
2022-09-01T10:03:53.950Z,69.85
2022-09-01T10:04:55.903Z,72.41
2022-09-01T10:05:53.935Z,73.38
2022-09-01T10:06:53.891Z,73.32
2022-09-01T10:07:53.872Z,74.59
2022-09-01T10:08:53.903Z,70.53
2022-09-01T10:09:53.846Z,72.14
2022-09-01T10:10:58.435Z,71.30
2022-09-01T10:11:53.849Z,72.11
2022-09-01T10:12:53.824Z,70.66
2022-09-01T10:13:53.846Z,70.83
2022-09-01T10:14:53.857Z,69.62
2022-09-01T10:15:53.785Z,70.50
2022-09-01T10:16:53.863Z,70.70
2022-09-01T10:18:19.698Z,72.11
2022-09-01T10:18:54.753Z,71.30
2022-09-01T10:19:53.749Z,73.24
2022-09-01T10:20:53.771Z,72.07
2022-09-01T10:21:53.719Z,74.52
2022-09-01T10:22:53.721Z,72.91
2022-09-01T10:23:53.965Z,69.99
2022-09-01T10:24:53.697Z,70.26
2022-09-01T10:25:53.690Z,69.89
2022-09-01T10:26:53.737Z,70.09
2022-09-01T10:27:55.051Z,71.03
2022-09-01T10:28:53.650Z,72.00
2022-09-01T10:30:12.219Z,72.07
2022-09-01T10:30:54.844Z,69.72
2022-09-01T10:32:14.799Z,71.00
2022-09-01T10:32:56.489Z,68.08
2022-09-01T10:33:53.596Z,70.46
2022-09-01T10:34:53.579Z,69.02
2022-09-01T10:35:53.575Z,68.12
2022-09-01T10:36:55.736Z,67.51
2022-09-01T10:37:53.559Z,67.04
2022-09-01T10:39:00.042Z,66.98
2022-09-01T10:39:54.574Z,67.58
2022-09-01T10:40:53.553Z,68.18
2022-09-01T10:42:00.165Z,66.67
2022-09-01T10:42:54.538Z,68.44
2022-09-01T10:43:54.027Z,68.11
2022-09-01T10:44:53.478Z,69.25
2022-09-01T10:45:58.701Z,68.44
2022-09-01T10:46:59.954Z,69.45
2022-09-01T10:47:54.503Z,69.45
2022-09-01T10:48:55.732Z,69.42
2022-09-01T10:49:53.416Z,72.64
2022-09-01T10:50:53.429Z,71.20
2022-09-01T10:51:56.461Z,69.89
2022-09-01T10:52:53.760Z,71.77
2022-09-01T10:53:53.376Z,70.29
2022-09-01T10:54:55.561Z,70.26
2022-09-01T10:55:59.031Z,70.46
2022-09-01T10:56:54.365Z,69.76
2022-09-01T10:57:53.338Z,69.25
2022-09-01T10:59:56.776Z,69.79
2022-09-01T11:02:23.136Z,68.29
2022-09-01T11:02:54.336Z,67.14
2022-09-01T11:03:53.559Z,67.58
2022-09-01T11:04:53.357Z,68.08
2022-09-01T11:05:59.644Z,67.02
2022-09-01T11:08:02.504Z,66.41
2022-09-01T11:08:54.226Z,67.61
2022-09-01T11:09:57.348Z,67.65
2022-09-01T11:10:53.287Z,63.54
2022-09-01T11:11:53.181Z,65.21
2022-09-01T11:12:53.170Z,63.70
2022-09-01T11:13:53.193Z,65.58
2022-09-01T11:14:53.157Z,63.45
2022-09-01T11:15:53.164Z,65.52
2022-09-01T11:16:53.281Z,64.62
2022-09-01T11:17:53.186Z,61.77
2022-09-01T11:18:53.105Z,63.87
2022-09-01T11:19:53.175Z,68.72
2022-09-01T11:20:53.090Z,66.22
2022-09-01T11:21:53.105Z,63.18
2022-09-01T11:22:53.110Z,62.75
2022-09-01T11:23:53.090Z,61.25
2022-09-01T11:25:00.330Z,61.31
2022-09-01T11:26:54.039Z,61.61
2022-09-01T11:27:53.124Z,60.88
2022-09-01T11:28:54.018Z,61.14
2022-09-01T11:29:53.024Z,63.20
2022-09-01T11:30:53.137Z,61.76
2022-09-01T11:33:14.011Z,62.69
2022-09-01T11:34:13.987Z,62.24
2022-09-01T11:35:13.736Z,63.89
2022-09-01T11:36:14.341Z,64.36
2022-09-01T11:38:35.714Z,63.85
2022-09-01T11:39:34.574Z,65.16
2022-09-01T11:40:34.578Z,64.89
2022-09-01T11:41:34.514Z,66.71
2022-09-01T11:42:34.455Z,66.30
2022-09-01T11:43:34.433Z,66.50
2022-09-01T11:44:34.349Z,67.31
2022-09-01T11:45:34.480Z,66.40
2022-09-01T11:46:34.414Z,66.10
2022-09-01T11:47:34.331Z,66.17
2022-09-01T11:48:34.504Z,64.63
2022-09-01T11:49:34.289Z,66.47
2022-09-01T11:50:34.310Z,67.35
2022-09-01T11:51:34.291Z,63.46
2022-09-01T11:52:34.263Z,64.40
2022-09-01T11:53:34.262Z,62.76
2022-09-01T11:54:34.288Z,62.76
2022-09-01T11:55:34.538Z,64.31
2022-09-01T11:56:34.221Z,61.70
2022-09-01T11:57:34.241Z,60.45
2022-09-01T11:58:34.203Z,63.26
2022-09-01T11:59:34.179Z,60.81
2022-09-01T12:00:34.185Z,63.42
2022-09-01T12:01:34.177Z,62.92
2022-09-01T12:02:36.634Z,61.18
2022-09-01T12:03:34.227Z,61.66
2022-09-01T12:04:34.223Z,61.38
2022-09-01T12:05:35.126Z,61.69
2022-09-01T12:06:34.113Z,61.21
2022-09-01T12:07:34.104Z,61.65
2022-09-01T12:08:34.097Z,61.90
2022-09-01T12:09:34.269Z,64.19
2022-09-01T12:10:34.141Z,63.08
2022-09-01T12:11:35.151Z,63.45
2022-09-01T12:12:34.045Z,61.74
2022-09-01T12:13:34.040Z,59.94
2022-09-01T12:14:55.053Z,61.34
2022-09-01T12:15:35.054Z,61.47
2022-09-01T12:16:34.149Z,63.68
2022-09-01T12:17:33.982Z,60.19
2022-09-01T12:18:34.009Z,61.27
2022-09-01T12:19:33.980Z,61.98
2022-09-01T12:20:34.090Z,62.15
2022-09-01T12:21:33.935Z,61.74
2022-09-01T12:22:33.929Z,62.75
2022-09-01T12:23:33.970Z,61.27
2022-09-01T12:24:34.018Z,62.98
2022-09-01T12:25:33.977Z,62.45
2022-09-01T12:26:33.904Z,60.47
2022-09-01T12:27:33.875Z,61.17
2022-09-01T12:28:33.897Z,59.59
2022-09-01T12:29:33.857Z,59.62
2022-09-01T12:30:33.851Z,60.52
2022-09-01T12:31:33.859Z,61.73
2022-09-01T12:32:33.934Z,59.84
2022-09-01T12:33:33.877Z,63.07
2022-09-01T12:34:33.800Z,63.00
2022-09-01T12:35:33.871Z,64.31
2022-09-01T12:36:33.822Z,64.75
2022-09-01T12:37:33.777Z,64.14
2022-09-01T12:38:33.770Z,64.84
2022-09-01T12:39:33.912Z,65.15
2022-09-01T12:40:33.767Z,65.95
2022-09-01T12:41:33.737Z,67.03
2022-09-01T12:42:41.453Z,66.02
2022-09-01T12:43:34.706Z,65.12
2022-09-01T12:44:33.712Z,65.15
2022-09-01T12:45:34.277Z,66.42
2022-09-01T12:46:33.683Z,66.16
2022-09-01T12:47:33.663Z,64.72
2022-09-01T12:48:33.637Z,64.14
2022-09-01T12:49:33.654Z,64.44
2022-09-01T12:50:33.623Z,66.36
2022-09-01T12:51:33.601Z,65.45
2022-09-01T12:52:33.593Z,63.43
2022-09-01T12:53:36.745Z,64.14
2022-09-01T12:54:33.622Z,65.75
2022-09-01T12:55:49.024Z,64.84
2022-09-01T12:56:34.546Z,65.75
2022-09-01T12:57:33.529Z,64.54
2022-09-01T12:58:33.515Z,65.95
2022-09-01T12:59:37.401Z,66.76
2022-09-01T13:00:33.529Z,66.86
2022-09-01T13:01:33.641Z,65.25
2022-09-01T13:02:33.695Z,65.55
2022-09-01T13:03:34.771Z,66.59
2022-09-01T13:04:33.492Z,67.36
2022-09-01T13:05:39.451Z,66.13
2022-09-01T13:06:34.473Z,64.72
2022-09-01T13:07:33.424Z,64.61
2022-09-01T13:08:33.437Z,66.13
2022-09-01T13:09:33.403Z,65.82
2022-09-01T13:10:33.386Z,64.95
2022-09-01T13:12:34.367Z,64.75
2022-09-01T13:13:33.362Z,63.53
2022-09-01T13:14:33.341Z,63.73
2022-09-01T13:15:33.343Z,64.84
2022-09-01T13:16:33.370Z,65.15
2022-09-01T13:17:33.338Z,64.61
2022-09-01T13:19:09.922Z,64.92
2022-09-01T13:19:34.288Z,63.24
2022-09-01T13:20:33.276Z,63.82
2022-09-01T13:21:33.310Z,61.27